Time;durP1;ratioP1;P1;durP2;ratioP2;P2;SDS_P1;SDS_P2;PMS_P1;PMS_P2;Temp;Humidity;BMP_temperature;BMP_pressure;BME280_temperature;BME280_humidity;BME280_pressure;Samples;Min_cycle;Max_cycle;Signal;HPM_P1;HPM_P2
2023/06/05 00:00:20;;;;;;;0.10;0.10;;;;;;;;;;5084785;28;20057;-75
2023/06/05 00:02:47;;;;;;;0.17;0.17;;;;;;;;;;5084794;28;20492;-75
2023/06/05 00:05:15;;;;;;;0.10;0.10;;;;;;;;;;5084436;28;20506;-75
2023/06/05 00:07:41;;;;;;;0.10;0.10;;;;;;;;;;5080883;28;20494;-74
2023/06/05 00:10:08;;;;;;;0.43;0.30;;;;;;;;;;5083621;28;20143;-76
2023/06/05 00:12:34;;;;;;;0.10;0.10;;;;;;;;;;5084158;28;20053;-75
2023/06/05 00:15:01;;;;;;;0.52;0.38;;;;;;;;;;5083959;28;20048;-75
2023/06/05 00:17:30;;;;;;;0.10;0.10;;;;;;;;;;5081846;28;20088;-76
2023/06/05 00:19:58;;;;;;;0.20;0.20;;;;;;;;;;5083537;28;20062;-76
2023/06/05 00:22:26;;;;;;;0.10;0.10;;;;;;;;;;5082774;28;20044;-76
2023/06/05 00:24:52;;;;;;;0.10;0.10;;;;;;;;;;5084899;28;20056;-74
2023/06/05 00:27:19;;;;;;;0.10;0.10;;;;;;;;;;5083447;28;20146;-76
2023/06/05 00:29:46;;;;;;;0.10;0.10;;;;;;;;;;5084613;28;20299;-75
2023/06/05 00:32:12;;;;;;;0.10;0.10;;;;;;;;;;5083943;28;20611;-75
2023/06/05 00:34:38;;;;;;;0.10;0.10;;;;;;;;;;5083354;28;20057;-75
2023/06/05 00:37:06;;;;;;;0.10;0.10;;;;;;;;;;5081458;28;20143;-75
2023/06/05 00:39:32;;;;;;;0.10;0.10;;;;;;;;;;5084032;28;20102;-75
2023/06/05 00:41:59;;;;;;;0.10;0.10;;;;;;;;;;5082696;28;20498;-75
2023/06/05 00:44:25;;;;;;;0.10;0.10;;;;;;;;;;5083900;28;20495;-76
2023/06/05 00:46:52;;;;;;;0.10;0.10;;;;;;;;;;5080561;28;20053;-75
2023/06/05 00:49:19;;;;;;;0.10;0.10;;;;;;;;;;5083772;28;20098;-75
2023/06/05 00:51:46;;;;;;;0.10;0.10;;;;;;;;;;5083984;28;20109;-74
2023/06/05 00:54:13;;;;;;;0.10;0.10;;;;;;;;;;5083535;28;20052;-76
2023/06/05 00:56:41;;;;;;;0.10;0.10;;;;;;;;;;5082449;28;20084;-75
2023/06/05 00:59:07;;;;;;;0.10;0.10;;;;;;;;;;5083402;28;20056;-75
2023/06/05 01:01:34;;;;;;;0.10;0.10;;;;;;;;;;5084615;28;20086;-76
2023/06/05 01:04:00;;;;;;;0.10;0.10;;;;;;;;;;5084368;28;20048;-76
2023/06/05 01:06:27;;;;;;;0.10;0.10;;;;;;;;;;5082434;28;20049;-75
2023/06/05 01:08:56;;;;;;;0.30;0.28;;;;;;;;;;5082370;28;20059;-75
2023/06/05 01:11:38;;;;;;;0.20;0.20;;;;;;;;;;5082755;28;20060;-76
2023/06/05 01:14:08;;;;;;;0.10;0.10;;;;;;;;;;5082262;28;20592;-76
2023/06/05 01:16:35;;;;;;;0.10;0.10;;;;;;;;;;5083125;28;20045;-77
2023/06/05 01:19:02;;;;;;;0.30;0.20;;;;;;;;;;5083081;28;20130;-76
2023/06/05 01:21:32;;;;;;;0.10;0.10;;;;;;;;;;5083070;28;20052;-74
2023/06/05 01:23:58;;;;;;;0.10;0.10;;;;;;;;;;5063897;28;20057;-75
2023/06/05 01:26:29;;;;;;;0.10;0.10;;;;;;;;;;5085238;28;20059;-75
2023/06/05 01:28:57;;;;;;;0.10;0.10;;;;;;;;;;5086876;28;20056;-74
2023/06/05 01:31:24;;;;;;;0.38;0.30;;;;;;;;;;5087165;28;20521;-73
2023/06/05 01:33:57;;;;;;;0.10;0.10;;;;;;;;;;5085947;28;20153;-75
2023/06/05 01:36:23;;;;;;;0.10;0.10;;;;;;;;;;5084613;28;20126;-74
2023/06/05 01:38:51;;;;;;;0.10;0.10;;;;;;;;;;5085622;28;20568;-75
2023/06/05 01:41:18;;;;;;;0.10;0.10;;;;;;;;;;5086369;28;20056;-74
2023/06/05 01:43:45;;;;;;;0.10;0.10;;;;;;;;;;5086865;28;20126;-75
2023/06/05 01:46:12;;;;;;;0.10;0.10;;;;;;;;;;5084787;28;20080;-75
2023/06/05 01:48:39;;;;;;;0.08;0.08;;;;;;;;;;5084802;28;20537;-77
2023/06/05 01:51:05;;;;;;;0.10;0.10;;;;;;;;;;5085581;28;20083;-76
2023/06/05 01:53:32;;;;;;;0.10;0.10;;;;;;;;;;5086297;28;20052;-74
2023/06/05 01:55:59;;;;;;;0.20;0.20;;;;;;;;;;5085881;28;20514;-75
2023/06/05 01:58:26;;;;;;;0.10;0.10;;;;;;;;;;5084457;28;20056;-75
2023/06/05 02:00:53;;;;;;;0.10;0.10;;;;;;;;;;5083867;28;20112;-75
2023/06/05 02:03:20;;;;;;;0.20;0.20;;;;;;;;;;5086501;28;20506;-75
2023/06/05 02:05:47;;;;;;;0.10;0.10;;;;;;;;;;5086250;28;20135;-75
2023/06/05 02:08:19;;;;;;;0.10;0.10;;;;;;;;;;5085184;28;20149;-74
2023/06/05 02:10:46;;;;;;;0.10;0.10;;;;;;;;;;5085074;28;20048;-75
2023/06/05 02:13:15;;;;;;;0.30;0.30;;;;;;;;;;5085972;28;20112;-76
2023/06/05 02:15:41;;;;;;;0.10;0.10;;;;;;;;;;5085922;28;20521;-75
2023/06/05 02:18:08;;;;;;;0.10;0.10;;;;;;;;;;5084948;28;20110;-74
2023/06/05 02:20:35;;;;;;;0.10;0.10;;;;;;;;;;5084981;28;20537;-74
2023/06/05 02:23:02;;;;;;;0.10;0.10;;;;;;;;;;5077130;28;20081;-75
2023/06/05 02:25:29;;;;;;;0.30;0.20;;;;;;;;;;5065241;28;20153;-75
2023/06/05 02:27:56;;;;;;;0.10;0.10;;;;;;;;;;5065222;28;20502;-75
2023/06/05 02:30:22;;;;;;;0.13;0.13;;;;;;;;;;5084189;28;20163;-74
2023/06/05 02:32:51;;;;;;;0.43;0.30;;;;;;;;;;5085235;28;20659;-75
2023/06/05 02:35:18;;;;;;;0.73;0.35;;;;;;;;;;5085854;28;20549;-75
2023/06/05 02:37:44;;;;;;;0.10;0.10;;;;;;;;;;5084082;28;20571;-75
2023/06/05 02:40:12;;;;;;;0.10;0.10;;;;;;;;;;5082142;28;20052;-75
2023/06/05 02:42:39;;;;;;;0.10;0.10;;;;;;;;;;5085874;28;20051;-75
2023/06/05 02:45:07;;;;;;;0.10;0.10;;;;;;;;;;5083748;28;20056;-75
2023/06/05 02:47:33;;;;;;;0.10;0.10;;;;;;;;;;5085701;28;20053;-75
2023/06/05 02:50:00;;;;;;;0.10;0.10;;;;;;;;;;5082757;28;20087;-76
2023/06/05 02:52:27;;;;;;;0.10;0.10;;;;;;;;;;5084727;28;20048;-77
2023/06/05 02:54:54;;;;;;;0.10;0.10;;;;;;;;;;5084986;28;20522;-75
2023/06/05 02:57:21;;;;;;;0.10;0.10;;;;;;;;;;5084162;28;20536;-75
2023/06/05 02:59:47;;;;;;;0.10;0.10;;;;;;;;;;5081558;28;20052;-76
2023/06/05 03:02:13;;;;;;;0.15;0.15;;;;;;;;;;5083898;28;20759;-74
2023/06/05 03:04:40;;;;;;;0.13;0.13;;;;;;;;;;5084732;28;20483;-74
2023/06/05 03:07:08;;;;;;;0.10;0.10;;;;;;;;;;5085233;28;20193;-75
2023/06/05 03:09:35;;;;;;;0.10;0.10;;;;;;;;;;5082510;28;20059;-76
2023/06/05 03:12:01;;;;;;;0.10;0.10;;;;;;;;;;5085277;28;20063;-75
2023/06/05 03:14:28;;;;;;;0.10;0.10;;;;;;;;;;5082016;28;20052;-75
2023/06/05 03:16:54;;;;;;;0.17;0.17;;;;;;;;;;5084552;28;20063;-74
2023/06/05 03:19:21;;;;;;;0.10;0.10;;;;;;;;;;5080632;28;20132;-75
2023/06/05 03:21:48;;;;;;;0.10;0.10;;;;;;;;;;5084509;28;20632;-76
2023/06/05 03:24:15;;;;;;;0.10;0.10;;;;;;;;;;5084716;28;20123;-75
2023/06/05 03:26:42;;;;;;;0.10;0.10;;;;;;;;;;5084809;28;20068;-76
2023/06/05 03:29:12;;;;;;;1.95;1.45;;;;;;;;;;5082646;28;20048;-75
2023/06/05 03:31:38;;;;;;;0.10;0.10;;;;;;;;;;5084803;28;20053;-76
2023/06/05 03:34:06;;;;;;;0.10;0.10;;;;;;;;;;5083341;28;20057;-74
2023/06/05 03:36:34;;;;;;;0.10;0.10;;;;;;;;;;5085512;28;20063;-76
2023/06/05 03:39:01;;;;;;;0.10;0.10;;;;;;;;;;5081482;28;20053;-75
2023/06/05 03:41:27;;;;;;;0.10;0.10;;;;;;;;;;5083872;28;20606;-74
2023/06/05 03:43:54;;;;;;;0.10;0.10;;;;;;;;;;5083525;28;20517;-75
2023/06/05 03:46:20;;;;;;;0.10;0.10;;;;;;;;;;5080108;28;20049;-75
2023/06/05 03:49:01;;;;;;;0.10;0.10;;;;;;;;;;5079240;28;20081;-75
2023/06/05 03:51:30;;;;;;;0.22;0.20;;;;;;;;;;5081504;28;20052;-75
2023/06/05 03:53:58;;;;;;;0.10;0.10;;;;;;;;;;5080333;28;20147;-75
2023/06/05 03:56:28;;;;;;;0.10;0.10;;;;;;;;;;5083884;28;20048;-74
2023/06/05 03:58:58;;;;;;;0.40;0.40;;;;;;;;;;5082057;28;20423;-74
2023/06/05 04:01:24;;;;;;;0.10;0.10;;;;;;;;;;5081854;28;20098;-75
2023/06/05 04:03:51;;;;;;;0.10;0.10;;;;;;;;;;5081378;28;20529;-74
2023/06/05 04:06:17;;;;;;;0.68;0.68;;;;;;;;;;5084112;28;20056;-75
2023/06/05 04:08:44;;;;;;;0.10;0.10;;;;;;;;;;5080906;28;20507;-77
2023/06/05 04:11:10;;;;;;;0.10;0.10;;;;;;;;;;5083667;28;20060;-75
2023/06/05 04:13:36;;;;;;;0.70;0.50;;;;;;;;;;5085576;28;20142;-76
2023/06/05 04:16:03;;;;;;;0.10;0.10;;;;;;;;;;5082550;28;20060;-75
2023/06/05 04:18:30;;;;;;;0.60;0.60;;;;;;;;;;5082724;28;20177;-75
2023/06/05 04:20:56;;;;;;;0.10;0.10;;;;;;;;;;5082777;28;20834;-77
2023/06/05 04:23:22;;;;;;;0.10;0.10;;;;;;;;;;5083677;28;20055;-75
2023/06/05 04:25:49;;;;;;;0.10;0.10;;;;;;;;;;5083264;28;20052;-76
2023/06/05 04:28:16;;;;;;;0.10;0.10;;;;;;;;;;5079401;28;20048;-75
2023/06/05 04:30:44;;;;;;;1.17;0.68;;;;;;;;;;5082810;28;20057;-75
2023/06/05 04:33:11;;;;;;;0.10;0.10;;;;;;;;;;5083221;28;20125;-76
2023/06/05 04:35:38;;;;;;;0.20;0.20;;;;;;;;;;5083449;28;20049;-75
2023/06/05 04:38:04;;;;;;;0.10;0.10;;;;;;;;;;5081771;28;20593;-76
2023/06/05 04:40:31;;;;;;;0.10;0.10;;;;;;;;;;5082901;28;20053;-75
2023/06/05 04:42:58;;;;;;;0.15;0.15;;;;;;;;;;5083045;28;20057;-76
2023/06/05 04:45:24;;;;;;;0.10;0.10;;;;;;;;;;5082149;28;20121;-75
2023/06/05 04:47:51;;;;;;;0.10;0.10;;;;;;;;;;5080741;28;20118;-75
2023/06/05 04:50:21;;;;;;;0.10;0.10;;;;;;;;;;5083277;28;20084;-76
2023/06/05 04:52:48;;;;;;;0.10;0.10;;;;;;;;;;5082864;28;20147;-76
2023/06/05 04:55:14;;;;;;;0.30;0.20;;;;;;;;;;5081750;28;20048;-76
2023/06/05 04:57:42;;;;;;;0.10;0.10;;;;;;;;;;5080742;28;20062;-76
2023/06/05 05:00:10;;;;;;;0.20;0.20;;;;;;;;;;5083027;28;20048;-75
2023/06/05 05:02:36;;;;;;;0.20;0.20;;;;;;;;;;5084172;28;20049;-77
2023/06/05 05:05:04;;;;;;;0.10;0.10;;;;;;;;;;5086563;28;20057;-77
2023/06/05 05:07:30;;;;;;;0.57;0.57;;;;;;;;;;5085433;28;20111;-77
2023/06/05 05:09:57;;;;;;;0.75;0.40;;;;;;;;;;5086672;28;20063;-76
2023/06/05 05:12:23;;;;;;;0.45;0.45;;;;;;;;;;5086258;28;20472;-76
2023/06/05 05:14:50;;;;;;;0.10;0.10;;;;;;;;;;5085163;28;20049;-76
2023/06/05 05:17:19;;;;;;;0.13;0.13;;;;;;;;;;5082866;28;20135;-76
2023/06/05 05:19:46;;;;;;;0.20;0.20;;;;;;;;;;5081248;28;20063;-77
2023/06/05 05:22:12;;;;;;;0.10;0.10;;;;;;;;;;5084337;28;20086;-76
2023/06/05 05:24:40;;;;;;;0.17;0.17;;;;;;;;;;5083633;28;20503;-75
2023/06/05 05:27:08;;;;;;;0.10;0.10;;;;;;;;;;5081585;28;20102;-75
2023/06/05 05:29:34;;;;;;;0.20;0.20;;;;;;;;;;5082801;28;20083;-76
2023/06/05 05:32:00;;;;;;;0.20;0.20;;;;;;;;;;5082614;27;20410;-77
2023/06/05 05:34:27;;;;;;;0.20;0.20;;;;;;;;;;5086394;28;20124;-76
2023/06/05 05:36:53;;;;;;;0.10;0.10;;;;;;;;;;5083747;28;20083;-76
2023/06/05 05:39:20;;;;;;;0.10;0.10;;;;;;;;;;5083036;28;20052;-75
2023/06/05 05:41:46;;;;;;;0.10;0.10;;;;;;;;;;5086070;28;20052;-76
2023/06/05 05:44:13;;;;;;;0.10;0.10;;;;;;;;;;5086023;28;20048;-77
2023/06/05 05:46:39;;;;;;;0.10;0.10;;;;;;;;;;5083445;28;20049;-77
2023/06/05 05:49:06;;;;;;;0.10;0.10;;;;;;;;;;5084953;28;20139;-77
2023/06/05 05:51:33;;;;;;;0.10;0.10;;;;;;;;;;5084230;28;20053;-76
2023/06/05 05:54:00;;;;;;;0.10;0.10;;;;;;;;;;5080862;28;20522;-76
2023/06/05 05:56:27;;;;;;;1.10;0.50;;;;;;;;;;5085970;27;20056;-74
2023/06/05 05:58:53;;;;;;;0.30;0.30;;;;;;;;;;5081463;28;20056;-76
2023/06/05 06:01:21;;;;;;;0.10;0.10;;;;;;;;;;5081842;28;20059;-77
2023/06/05 06:03:48;;;;;;;0.10;0.10;;;;;;;;;;5085658;28;20057;-76
2023/06/05 06:06:14;;;;;;;0.20;0.20;;;;;;;;;;5083821;28;20064;-76
2023/06/05 06:08:41;;;;;;;0.13;0.13;;;;;;;;;;5088280;28;20061;-75
2023/06/05 06:11:07;;;;;;;0.17;0.17;;;;;;;;;;5082896;28;20605;-73
2023/06/05 06:13:34;;;;;;;0.13;0.13;;;;;;;;;;5084795;28;20049;-73
2023/06/05 06:16:02;;;;;;;0.20;0.20;;;;;;;;;;5085262;28;20095;-75
2023/06/05 06:18:28;;;;;;;0.20;0.20;;;;;;;;;;5085013;28;20056;-75
2023/06/05 06:20:55;;;;;;;0.10;0.10;;;;;;;;;;5081601;28;20520;-73
2023/06/05 06:23:21;;;;;;;0.10;0.10;;;;;;;;;;5082022;28;20122;-73
2023/06/05 06:25:48;;;;;;;0.17;0.17;;;;;;;;;;5084098;28;20057;-76
2023/06/05 06:28:15;;;;;;;0.10;0.10;;;;;;;;;;5083040;28;20132;-76
2023/06/05 06:30:42;;;;;;;0.10;0.10;;;;;;;;;;5085137;28;20056;-77
2023/06/05 06:33:08;;;;;;;0.20;0.20;;;;;;;;;;5082147;28;20051;-76
2023/06/05 06:35:36;;;;;;;0.45;0.30;;;;;;;;;;5083587;28;20548;-77
2023/06/05 06:38:03;;;;;;;0.30;0.30;;;;;;;;;;5077752;28;20223;-76
2023/06/05 06:40:29;;;;;;;0.20;0.20;;;;;;;;;;5078918;28;20052;-78
2023/06/05 06:42:55;;;;;;;0.73;0.70;;;;;;;;;;5078898;28;20087;-74
2023/06/05 06:45:22;;;;;;;0.10;0.10;;;;;;;;;;5083159;28;20110;-73
2023/06/05 06:47:48;;;;;;;0.10;0.10;;;;;;;;;;5081152;28;20060;-74
2023/06/05 06:50:32;;;;;;;0.13;0.13;;;;;;;;;;5072202;28;20048;-74
2023/06/05 06:52:58;;;;;;;0.20;0.20;;;;;;;;;;5084238;28;20553;-73
2023/06/05 06:55:25;;;;;;;0.20;0.20;;;;;;;;;;5083087;28;20052;-73
2023/06/05 06:57:51;;;;;;;0.20;0.20;;;;;;;;;;5082442;28;20178;-73
2023/06/05 07:00:20;;;;;;;0.10;0.10;;;;;;;;;;5084039;28;20048;-74
2023/06/05 07:02:46;;;;;;;0.43;0.43;;;;;;;;;;5083338;28;20052;-74
2023/06/05 07:05:14;;;;;;;0.47;0.43;;;;;;;;;;5081627;28;20060;-73
2023/06/05 07:07:40;;;;;;;0.28;0.28;;;;;;;;;;5079143;28;20049;-75
2023/06/05 07:10:07;;;;;;;0.20;0.20;;;;;;;;;;5083009;28;20135;-76
2023/06/05 07:12:34;;;;;;;0.20;0.20;;;;;;;;;;5083555;28;20143;-73
2023/06/05 07:15:00;;;;;;;0.10;0.10;;;;;;;;;;5081176;28;20760;-73
2023/06/05 07:17:29;;;;;;;0.10;0.10;;;;;;;;;;5082825;28;20052;-74
2023/06/05 07:19:56;;;;;;;0.52;0.40;;;;;;;;;;5081015;28;20053;-74
2023/06/05 07:22:24;;;;;;;0.20;0.20;;;;;;;;;;5078884;27;20079;-73
2023/06/05 07:24:53;;;;;;;0.60;0.35;;;;;;;;;;5077108;28;20052;-72
2023/06/05 07:27:20;;;;;;;0.10;0.10;;;;;;;;;;5081927;28;20095;-73
2023/06/05 07:29:46;;;;;;;0.25;0.22;;;;;;;;;;5083862;28;20057;-73
2023/06/05 07:32:16;;;;;;;1.65;1.20;;;;;;;;;;5080807;28;20126;-74
2023/06/05 07:34:42;;;;;;;0.28;0.28;;;;;;;;;;5081260;28;20462;-73
2023/06/05 07:37:09;;;;;;;0.22;0.20;;;;;;;;;;5081421;28;20057;-73
2023/06/05 07:39:35;;;;;;;0.20;0.20;;;;;;;;;;5081513;28;20052;-73
2023/06/05 07:42:02;;;;;;;0.25;0.20;;;;;;;;;;5083085;28;20139;-74
2023/06/05 07:44:28;;;;;;;0.20;0.20;;;;;;;;;;5082388;28;20745;-73
2023/06/05 07:46:54;;;;;;;0.22;0.22;;;;;;;;;;5080182;28;20505;-73
2023/06/05 07:49:23;;;;;;;0.28;0.28;;;;;;;;;;5075971;28;20056;-74
2023/06/05 07:51:50;;;;;;;0.13;0.13;;;;;;;;;;5079269;28;20510;-73
2023/06/05 07:54:18;;;;;;;0.32;0.20;;;;;;;;;;5083011;28;20884;-73
2023/06/05 07:56:48;;;;;;;0.30;0.30;;;;;;;;;;5081246;28;20548;-73
2023/06/05 07:59:16;;;;;;;1.65;0.57;;;;;;;;;;5080197;28;20489;-73
2023/06/05 08:01:43;;;;;;;0.22;0.22;;;;;;;;;;5075610;28;20053;-73
2023/06/05 08:04:12;;;;;;;0.45;0.28;;;;;;;;;;5081184;28;20932;-73
2023/06/05 08:06:39;;;;;;;0.40;0.30;;;;;;;;;;5081034;28;20495;-74
2023/06/05 08:09:09;;;;;;;0.30;0.30;;;;;;;;;;5079080;28;20052;-74
2023/06/05 08:11:38;;;;;;;0.30;0.30;;;;;;;;;;5082529;28;20103;-73
2023/06/05 08:14:06;;;;;;;0.20;0.20;;;;;;;;;;5078917;28;20044;-74
2023/06/05 08:16:32;;;;;;;0.35;0.30;;;;;;;;;;5083873;28;20052;-73
2023/06/05 08:18:59;;;;;;;0.35;0.32;;;;;;;;;;5080006;28;20100;-72
2023/06/05 08:24:07;;;;;;;0.28;0.28;;;;;;;;;;5152902;22;20128;-74
2023/06/05 08:26:34;;;;;;;0.30;0.30;;;;;;;;;;5042004;28;20045;-75
2023/06/05 08:29:02;;;;;;;0.22;0.22;;;;;;;;;;5033651;28;20060;-75
2023/06/05 08:31:29;;;;;;;0.20;0.20;;;;;;;;;;5042892;28;20143;-74
2023/06/05 08:33:56;;;;;;;0.20;0.20;;;;;;;;;;5041943;28;20517;-74
2023/06/05 08:36:24;;;;;;;0.20;0.20;;;;;;;;;;5040864;28;20199;-74
2023/06/05 08:38:50;;;;;;;0.75;0.60;;;;;;;;;;5041127;28;20567;-75
2023/06/05 08:41:18;;;;;;;0.20;0.20;;;;;;;;;;5041679;28;20103;-72
2023/06/05 08:43:44;;;;;;;0.20;0.20;;;;;;;;;;5040758;28;20273;-72
2023/06/05 08:46:11;;;;;;;0.40;0.40;;;;;;;;;;5040547;28;20194;-73
2023/06/05 08:48:45;;;;;;;0.20;0.20;;;;;;;;;;5040353;28;20136;-73
2023/06/05 08:51:12;;;;;;;0.20;0.20;;;;;;;;;;5043479;28;20053;-72
2023/06/05 08:53:40;;;;;;;0.22;0.20;;;;;;;;;;5042192;28;20045;-72
2023/06/05 08:56:10;;;;;;;0.20;0.20;;;;;;;;;;5036998;28;20507;-72
2023/06/05 08:58:36;;;;;;;0.30;0.30;;;;;;;;;;5037614;28;20058;-72
2023/06/05 09:01:03;;;;;;;0.20;0.20;;;;;;;;;;5036754;28;20506;-73
2023/06/05 09:03:32;;;;;;;0.20;0.20;;;;;;;;;;5038645;28;20149;-72
2023/06/05 09:05:58;;;;;;;0.20;0.20;;;;;;;;;;5041441;28;20616;-72
2023/06/05 09:08:32;;;;;;;0.20;0.20;;;;;;;;;;5039728;28;20058;-72
2023/06/05 09:11:17;;;;;;;0.20;0.20;;;;;;;;;;5043545;28;20053;-72
2023/06/05 09:13:45;;;;;;;0.20;0.20;;;;;;;;;;5038206;28;20582;-73
2023/06/05 09:16:11;;;;;;;0.20;0.20;;;;;;;;;;5037671;28;20061;-72
2023/06/05 09:18:57;;;;;;;0.20;0.20;;;;;;;;;;5041753;28;20814;-72
2023/06/05 09:21:28;;;;;;;0.20;0.20;;;;;;;;;;5041332;28;20080;-73
2023/06/05 09:24:13;;;;;;;0.35;0.35;;;;;;;;;;5038166;28;20430;-72
2023/06/05 09:26:47;;;;;;;0.50;0.40;;;;;;;;;;5037783;28;20127;-72
2023/06/05 09:29:19;;;;;;;0.20;0.20;;;;;;;;;;5041841;28;20057;-73
2023/06/05 09:31:45;;;;;;;0.47;0.35;;;;;;;;;;5040578;28;20107;-73
2023/06/05 09:34:20;;;;;;;0.20;0.20;;;;;;;;;;5041382;28;20064;-72
2023/06/05 09:36:46;;;;;;;0.20;0.20;;;;;;;;;;5042020;28;20143;-72
2023/06/05 09:39:16;;;;;;;0.30;0.30;;;;;;;;;;5042038;28;20064;-73
2023/06/05 09:41:44;;;;;;;0.30;0.30;;;;;;;;;;5041375;28;20053;-73
2023/06/05 09:44:11;;;;;;;0.20;0.20;;;;;;;;;;5045195;28;20397;-73
2023/06/05 09:46:57;;;;;;;0.35;0.35;;;;;;;;;;5044312;28;20062;-73
2023/06/05 09:49:44;;;;;;;0.25;0.25;;;;;;;;;;5046257;28;20054;-73
2023/06/05 09:52:12;;;;;;;0.20;0.20;;;;;;;;;;5044983;28;20076;-73
2023/06/05 09:54:41;;;;;;;0.30;0.30;;;;;;;;;;5044590;28;20055;-73
2023/06/05 09:57:11;;;;;;;0.20;0.20;;;;;;;;;;5045347;28;20049;-73
2023/06/05 09:59:45;;;;;;;0.20;0.20;;;;;;;;;;5043349;28;20145;-73
2023/06/05 10:02:16;;;;;;;0.75;0.55;;;;;;;;;;5038596;28;20099;-73
2023/06/05 10:04:45;;;;;;;0.20;0.20;;;;;;;;;;5035269;28;20127;-73
2023/06/05 10:07:12;;;;;;;0.57;0.43;;;;;;;;;;5041021;28;20084;-72
2023/06/05 10:09:40;;;;;;;0.32;0.30;;;;;;;;;;5036530;28;20532;-72
2023/06/05 10:12:08;;;;;;;0.30;0.28;;;;;;;;;;5037108;28;20045;-72
2023/06/05 10:14:35;;;;;;;0.20;0.20;;;;;;;;;;5041070;28;20053;-72
2023/06/05 10:17:02;;;;;;;0.40;0.40;;;;;;;;;;5041419;28;20529;-72
2023/06/05 10:19:29;;;;;;;0.30;0.30;;;;;;;;;;5039754;28;20057;-73
2023/06/05 10:21:56;;;;;;;0.20;0.20;;;;;;;;;;5040715;28;20308;-72
2023/06/05 10:24:28;;;;;;;0.30;0.30;;;;;;;;;;5040020;28;20503;-73
2023/06/05 10:26:56;;;;;;;0.45;0.35;;;;;;;;;;5036894;28;20144;-73
2023/06/05 10:29:30;;;;;;;0.32;0.32;;;;;;;;;;5039180;28;20045;-73
2023/06/05 10:32:08;;;;;;;0.30;0.30;;;;;;;;;;5041562;28;20054;-73
2023/06/05 10:34:54;;;;;;;0.30;0.30;;;;;;;;;;5044747;28;20054;-72
2023/06/05 10:37:29;;;;;;;0.30;0.30;;;;;;;;;;5042424;28;20115;-73
2023/06/05 10:39:56;;;;;;;0.30;0.30;;;;;;;;;;5044875;28;20054;-72
2023/06/05 10:42:23;;;;;;;0.30;0.30;;;;;;;;;;5042756;28;20128;-73
2023/06/05 10:44:49;;;;;;;0.30;0.30;;;;;;;;;;5045379;28;20139;-73
2023/06/05 10:47:35;;;;;;;0.22;0.22;;;;;;;;;;5040531;28;20128;-73
2023/06/05 10:50:17;;;;;;;0.30;0.30;;;;;;;;;;5045003;28;20597;-73
2023/06/05 10:52:45;;;;;;;0.30;0.30;;;;;;;;;;5037831;28;20053;-73
2023/06/05 10:55:12;;;;;;;0.20;0.20;;;;;;;;;;5044138;28;20049;-72
2023/06/05 10:57:58;;;;;;;0.30;0.30;;;;;;;;;;5048801;28;20175;-73
2023/06/05 11:00:24;;;;;;;2.05;1.63;;;;;;;;;;5034912;28;20053;-73
2023/06/05 11:03:06;;;;;;;0.30;0.30;;;;;;;;;;5640485;22;20118;-71
2023/06/05 11:05:32;;;;;;;0.40;0.40;;;;;;;;;;5088922;28;20052;-74
2023/06/05 11:08:15;;;;;;;0.30;0.30;;;;;;;;;;5088471;28;20052;-75
2023/06/05 11:11:00;;;;;;;0.32;0.30;;;;;;;;;;5083504;28;20637;-73
2023/06/05 11:13:46;;;;;;;0.30;0.30;;;;;;;;;;5081245;28;20059;-74
2023/06/05 11:16:25;;;;;;;0.30;0.30;;;;;;;;;;5085610;28;20847;-74
2023/06/05 11:18:51;;;;;;;0.20;0.20;;;;;;;;;;5079842;28;20084;-74
2023/06/05 11:21:20;;;;;;;0.20;0.20;;;;;;;;;;5077904;28;20055;-74
2023/06/05 11:24:11;;;;;;;0.30;0.30;;;;;;;;;;5085217;28;20057;-74
2023/06/05 11:26:42;;;;;;;0.65;0.65;;;;;;;;;;5078295;28;20095;-74
2023/06/05 11:29:15;;;;;;;0.30;0.30;;;;;;;;;;5083037;28;20719;-75
2023/06/05 11:31:46;;;;;;;0.30;0.30;;;;;;;;;;5081885;28;20595;-74
2023/06/05 11:34:19;;;;;;;0.30;0.30;;;;;;;;;;5079726;28;20056;-73
2023/06/05 11:36:53;;;;;;;0.30;0.30;;;;;;;;;;5079170;28;20091;-73
2023/06/05 11:39:29;;;;;;;0.20;0.20;;;;;;;;;;5077423;28;20586;-73
2023/06/05 11:42:02;;;;;;;0.28;0.28;;;;;;;;;;5080254;28;20532;-74
2023/06/05 11:44:36;;;;;;;0.30;0.30;;;;;;;;;;5084318;28;20052;-74
2023/06/05 11:47:23;;;;;;;0.30;0.30;;;;;;;;;;5084930;28;20489;-73
2023/06/05 11:49:55;;;;;;;0.30;0.30;;;;;;;;;;5080544;28;20140;-73
2023/06/05 11:52:27;;;;;;;0.20;0.20;;;;;;;;;;5083994;28;20059;-73
2023/06/05 11:55:19;;;;;;;0.30;0.30;;;;;;;;;;5082667;28;20059;-73
2023/06/05 11:57:49;;;;;;;;;;;;;;;;;;5083019;28;20064;-71
2023/06/05 12:00:25;;;;;;;0.30;0.30;;;;;;;;;;5080068;28;45899;-75
2023/06/05 12:02:59;;;;;;;0.22;0.22;;;;;;;;;;5083290;28;20583;-74
2023/06/05 12:05:33;;;;;;;0.65;0.50;;;;;;;;;;5080710;28;20595;-71
2023/06/05 12:08:35;;;;;;;0.30;0.30;;;;;;;;;;5066626;28;20057;-72
2023/06/05 12:11:25;;;;;;;0.28;0.28;;;;;;;;;;5076114;28;20080;-72
2023/06/05 12:13:56;;;;;;;0.30;0.30;;;;;;;;;;5082923;28;20825;-73
2023/06/05 12:16:34;;;;;;;0.32;0.30;;;;;;;;;;5082153;28;20056;-72
2023/06/05 12:19:14;;;;;;;0.30;0.30;;;;;;;;;;5082575;28;20056;-72
2023/06/05 12:21:47;;;;;;;0.22;0.22;;;;;;;;;;5080801;28;20080;-72
2023/06/05 12:24:27;;;;;;;0.40;0.35;;;;;;;;;;5066281;28;20415;-72
2023/06/05 12:27:03;;;;;;;0.35;0.35;;;;;;;;;;5064157;28;20054;-72
2023/06/05 12:29:40;;;;;;;0.35;0.32;;;;;;;;;;5073342;28;20048;-72
2023/06/05 12:32:26;;;;;;;0.30;0.30;;;;;;;;;;5083712;28;20056;-72
2023/06/05 12:34:59;;;;;;;0.30;0.30;;;;;;;;;;5081307;28;20053;-72
2023/06/05 12:40:10;;;;;;;0.30;0.30;;;;;;;;;;5993539;22;20107;-73
2023/06/05 12:42:38;;;;;;;0.30;0.30;;;;;;;;;;5041956;28;20049;-73
2023/06/05 12:45:06;;;;;;;0.38;0.38;;;;;;;;;;5043007;28;20088;-73
2023/06/05 12:47:33;;;;;;;0.20;0.20;;;;;;;;;;5041947;28;20420;-73
2023/06/05 12:50:00;;;;;;;0.30;0.30;;;;;;;;;;5044769;28;20078;-73
2023/06/05 12:52:27;;;;;;;0.30;0.30;;;;;;;;;;5037296;28;20057;-73
2023/06/05 12:54:54;;;;;;;0.60;0.35;;;;;;;;;;5039808;28;20049;-72
2023/06/05 12:57:21;;;;;;;0.65;0.50;;;;;;;;;;5040197;28;20063;-72
2023/06/05 12:59:47;;;;;;;0.30;0.30;;;;;;;;;;5041537;28;20050;-73
2023/06/05 13:02:14;;;;;;;0.30;0.30;;;;;;;;;;5041421;28;20949;-73
2023/06/05 13:04:40;;;;;;;0.30;0.30;;;;;;;;;;5043693;28;20057;-73
2023/06/05 13:07:07;;;;;;;0.30;0.30;;;;;;;;;;5043254;28;20131;-73
2023/06/05 13:09:34;;;;;;;0.30;0.30;;;;;;;;;;5042453;28;20056;-73
2023/06/05 13:12:02;;;;;;;0.30;0.30;;;;;;;;;;5043065;28;20054;-73
2023/06/05 13:14:28;;;;;;;0.32;0.32;;;;;;;;;;5041653;28;20049;-73
2023/06/05 13:16:56;;;;;;;0.35;0.35;;;;;;;;;;5032336;28;20061;-73
2023/06/05 13:19:22;;;;;;;0.45;0.40;;;;;;;;;;5042742;28;20049;-74
2023/06/05 13:21:49;;;;;;;0.30;0.30;;;;;;;;;;5043853;28;20723;-73
2023/06/05 13:24:16;;;;;;;0.30;0.30;;;;;;;;;;5046010;28;20084;-73
2023/06/05 13:26:42;;;;;;;0.28;0.28;;;;;;;;;;5044475;28;20592;-73
2023/06/05 13:29:09;;;;;;;0.40;0.40;;;;;;;;;;5045464;28;20136;-73
2023/06/05 13:31:36;;;;;;;0.40;0.40;;;;;;;;;;5046724;28;20653;-73
2023/06/05 13:34:03;;;;;;;0.30;0.30;;;;;;;;;;5043815;28;20050;-73
2023/06/05 13:36:29;;;;;;;0.20;0.20;;;;;;;;;;5044949;28;20750;-73
2023/06/05 13:38:56;;;;;;;0.30;0.30;;;;;;;;;;5045758;28;20057;-73
2023/06/05 13:41:22;;;;;;;0.20;0.20;;;;;;;;;;5044761;28;20474;-72
2023/06/05 13:43:49;;;;;;;0.50;0.47;;;;;;;;;;5045826;28;20053;-73
2023/06/05 13:46:15;;;;;;;0.43;0.40;;;;;;;;;;5043691;28;20061;-71
2023/06/05 13:48:41;;;;;;;0.30;0.30;;;;;;;;;;5046556;28;20083;-73
2023/06/05 13:51:08;;;;;;;0.40;0.40;;;;;;;;;;5046349;28;20064;-72
2023/06/05 13:53:34;;;;;;;0.40;0.40;;;;;;;;;;5045948;28;20593;-73
2023/06/05 13:56:02;;;;;;;0.35;0.35;;;;;;;;;;5044447;28;20057;-73
2023/06/05 13:58:28;;;;;;;0.30;0.30;;;;;;;;;;5045981;28;20158;-72
2023/06/05 14:00:55;;;;;;;0.20;0.20;;;;;;;;;;5038571;28;20617;-72
2023/06/05 14:03:21;;;;;;;0.28;0.28;;;;;;;;;;5045691;28;20079;-72
2023/06/05 14:05:48;;;;;;;0.30;0.30;;;;;;;;;;5044232;28;20065;-72
2023/06/05 14:08:14;;;;;;;0.30;0.30;;;;;;;;;;5044858;28;20208;-73
2023/06/05 14:10:41;;;;;;;0.20;0.20;;;;;;;;;;5028947;28;20153;-74
2023/06/05 14:13:07;;;;;;;0.20;0.20;;;;;;;;;;5044189;28;20053;-74
2023/06/05 14:15:35;;;;;;;0.30;0.30;;;;;;;;;;5044029;28;20049;-73
2023/06/05 14:18:03;;;;;;;0.35;0.32;;;;;;;;;;5045711;28;20927;-73
2023/06/05 14:20:29;;;;;;;0.22;0.22;;;;;;;;;;5040200;28;20172;-73
2023/06/05 14:22:56;;;;;;;0.75;0.75;;;;;;;;;;5035441;28;20783;-74
2023/06/05 14:25:23;;;;;;;0.30;0.30;;;;;;;;;;5042714;28;20419;-74
2023/06/05 14:27:49;;;;;;;0.20;0.20;;;;;;;;;;5042915;28;20803;-72
2023/06/05 14:30:16;;;;;;;0.20;0.20;;;;;;;;;;5041472;28;20053;-73
2023/06/05 14:32:42;;;;;;;0.63;0.63;;;;;;;;;;5045558;28;20156;-73
2023/06/05 14:35:09;;;;;;;0.30;0.30;;;;;;;;;;5042559;28;20050;-73
2023/06/05 14:37:35;;;;;;;0.30;0.30;;;;;;;;;;5052570;28;20058;-73
2023/06/05 14:40:02;;;;;;;0.40;0.32;;;;;;;;;;5040260;28;20050;-72
2023/06/05 14:42:28;;;;;;;0.35;0.35;;;;;;;;;;5045444;28;20049;-73
2023/06/05 14:44:55;;;;;;;0.30;0.30;;;;;;;;;;5044431;28;20467;-72
2023/06/05 14:47:22;;;;;;;0.20;0.20;;;;;;;;;;5040807;28;20560;-74
2023/06/05 14:49:49;;;;;;;0.35;0.30;;;;;;;;;;5042164;28;20065;-72
2023/06/05 14:52:15;;;;;;;0.30;0.30;;;;;;;;;;5044727;28;20107;-72
2023/06/05 14:54:42;;;;;;;0.30;0.30;;;;;;;;;;5041643;28;20133;-72
2023/06/05 14:57:28;;;;;;;1.08;0.50;;;;;;;;;;5025438;28;20057;-72